Terminal Aerodrome Forecast
Issued by NWS Wilmington, OH

Current Version | Previous Version | Text Only | Print | Product List | Glossary Off
Versions: 1 2 3 4 5 6 7 8 9 10 11 12 13 14 15 16 17 18 19 20 21 22 23 24 25 26 27 28 29 30

326
FTUS41 KILN 290900 AAB
TAFCVG
TAF AMD
KCVG 290900Z 2909/3012 16010KT 5SM RA BR VCTS FEW050CB BKN100
      OVC110
      TEMPO 2909/2913 5SM TSRA OVC025CB
     FM291300 20009KT P6SM SHRA VCTS OVC025CB
     FM291600 20007KT P6SM BKN050
     FM291900 35005KT P6SM BKN050
     FM300000 19010KT P6SM BKN250=

USA.gov is the U.S. government's official web portal to all federal, state and local government web resources and services.